Time;durP1;ratioP1;P1;durP2;ratioP2;P2;SDS_P1;SDS_P2;PMS_P1;PMS_P2;Temp;Humidity;BMP_temperature;BMP_pressure;BME280_temperature;BME280_humidity;BME280_pressure;Samples;Min_cycle;Max_cycle;Signal;HPM_P1;HPM_P2
2022/01/11 00:00:03;;;;;;;42.83;14.77;;;;;;;3.99;100.00;102184.81;5276764;28;20032;-77
2022/01/11 00:02:36;;;;;;;30.60;13.70;;;;;;;4.06;100.00;102190.97;5279699;28;20130;-77
2022/01/11 00:05:06;;;;;;;32.15;14.00;;;;;;;4.06;100.00;102194.44;5277083;28;20024;-77
2022/01/11 00:07:43;;;;;;;33.58;13.93;;;;;;;4.08;100.00;102195.31;5272729;28;20043;-77
2022/01/11 00:10:25;;;;;;;36.95;14.85;;;;;;;4.01;100.00;102202.94;5275448;28;20024;-77
2022/01/11 00:12:57;;;;;;;39.70;15.57;;;;;;;3.93;100.00;102195.06;5279200;28;20028;-77
2022/01/11 00:15:28;;;;;;;37.70;15.45;;;;;;;4.02;100.00;102205.56;5280238;28;20030;-78
2022/01/11 00:17:59;;;;;;;39.58;15.35;;;;;;;4.10;100.00;102203.97;5272594;28;20023;-78
2022/01/11 00:20:29;;;;;;;38.00;14.77;;;;;;;4.09;100.00;102202.22;5276862;28;20042;-78
2022/01/11 00:25:36;;;;;;;34.92;14.02;;;;;;;4.10;100.00;102203.13;5277600;28;20020;-77
2022/01/11 00:28:08;;;;;;;38.88;13.98;;;;;;;4.13;100.00;102201.44;5283144;28;20024;-78
2022/01/11 00:30:41;;;;;;;34.08;14.02;;;;;;;4.17;100.00;102207.53;5279917;28;20059;-77
2022/01/11 00:33:17;;;;;;;31.55;13.60;;;;;;;4.10;100.00;102209.16;5279132;28;20404;-77
2022/01/11 00:36:00;;;;;;;29.85;13.43;;;;;;;4.12;100.00;102206.59;5280706;28;20039;-78
2022/01/11 00:38:33;;;;;;;33.90;13.45;;;;;;;4.11;100.00;102216.06;5269043;28;20024;-77
2022/01/11 00:41:06;;;;;;;37.70;13.63;;;;;;;4.08;100.00;102215.13;5280978;28;20087;-77
2022/01/11 00:43:40;;;;;;;37.30;14.75;;;;;;;4.10;100.00;102211.72;5278200;28;20022;-77
2022/01/11 00:46:11;;;;;;;32.55;14.88;;;;;;;4.27;100.00;102215.47;5277573;28;20111;-78
2022/01/11 00:48:41;;;;;;;37.35;13.95;;;;;;;4.19;100.00;102213.59;5278833;28;20028;-77
2022/01/11 00:51:12;;;;;;;35.17;14.50;;;;;;;4.03;100.00;102212.50;5277277;28;20020;-77
2022/01/11 00:53:42;;;;;;;35.60;13.52;;;;;;;4.05;100.00;102217.66;5282584;28;20038;-77
2022/01/11 00:56:13;;;;;;;33.85;14.57;;;;;;;3.99;100.00;102220.16;5277357;28;20389;-77
2022/01/11 00:58:43;;;;;;;35.47;14.30;;;;;;;3.95;100.00;102234.75;5276037;28;20380;-78
2022/01/11 01:01:14;;;;;;;38.40;15.20;;;;;;;3.93;100.00;102236.44;5274454;28;20481;-77
2022/01/11 01:03:44;;;;;;;34.80;14.48;;;;;;;3.92;100.00;102234.69;5277003;28;20034;-77
2022/01/11 01:06:15;;;;;;;30.30;13.35;;;;;;;3.93;100.00;102238.16;5278806;28;20019;-77
2022/01/11 01:08:45;;;;;;;29.48;12.77;;;;;;;3.99;100.00;102239.13;5277289;28;20070;-77
2022/01/11 01:11:15;;;;;;;30.52;12.77;;;;;;;4.07;100.00;102241.84;5278746;28;20032;-77
2022/01/11 01:13:46;;;;;;;32.28;12.38;;;;;;;4.12;100.00;102238.50;5279451;28;20031;-77
2022/01/11 01:16:16;;;;;;;29.35;12.63;;;;;;;4.12;100.00;102233.31;5276621;28;20028;-77
2022/01/11 01:18:47;;;;;;;27.48;11.30;;;;;;;4.24;100.00;102237.81;5274069;28;20024;-78
2022/01/11 01:21:18;;;;;;;26.13;12.13;;;;;;;4.13;100.00;102241.97;5278926;28;20054;-78
2022/01/11 01:23:48;;;;;;;26.45;11.50;;;;;;;4.12;100.00;102251.44;5279951;28;20032;-78
2022/01/11 01:26:19;;;;;;;26.33;10.95;;;;;;;4.01;100.00;102244.34;5282846;28;20167;-78
2022/01/11 01:28:49;;;;;;;24.00;11.00;;;;;;;4.02;100.00;102252.13;5280191;28;20032;-78
2022/01/11 01:31:19;;;;;;;25.85;11.07;;;;;;;4.01;100.00;102258.16;5279792;28;20441;-78
2022/01/11 01:33:50;;;;;;;23.95;10.80;;;;;;;4.07;100.00;102255.66;5282117;28;20024;-78
2022/01/11 01:36:20;;;;;;;24.67;11.88;;;;;;;4.06;100.00;102253.91;5283706;28;20509;-78
2022/01/11 01:38:50;;;;;;;22.27;10.57;;;;;;;4.05;100.00;102256.47;5276686;28;20028;-77
2022/01/11 01:41:22;;;;;;;24.75;10.63;;;;;;;4.06;100.00;102261.69;5281699;28;20111;-77
2022/01/11 01:43:56;;;;;;;22.25;10.65;;;;;;;4.08;100.00;102251.34;5278836;28;20030;-78
2022/01/11 01:46:27;;;;;;;24.73;11.43;;;;;;;4.05;100.00;102254.78;5282379;28;20028;-78
2022/01/11 01:48:59;;;;;;;23.67;10.80;;;;;;;4.10;100.00;102258.28;5276068;28;20030;-77
2022/01/11 01:51:30;;;;;;;24.83;11.57;;;;;;;4.08;100.00;102257.41;5274079;28;20028;-77
2022/01/11 01:54:01;;;;;;;23.85;11.25;;;;;;;4.15;100.00;102264.41;5282049;28;20366;-78
2022/01/11 01:56:31;;;;;;;20.20;9.88;;;;;;;4.20;100.00;102262.81;5282093;28;20024;-77
2022/01/11 01:59:02;;;;;;;19.27;9.75;;;;;;;4.20;100.00;102265.38;5277339;28;20024;-77
2022/01/11 02:01:37;;;;;;;21.38;10.10;;;;;;;4.13;100.00;102265.25;5277215;28;20024;-78
2022/01/11 02:04:07;;;;;;;19.92;10.18;;;;;;;4.15;100.00;102269.59;5279015;28;20043;-77
2022/01/11 02:06:38;;;;;;;30.05;11.93;;;;;;;4.22;100.00;102263.69;5275754;28;20108;-77
2022/01/11 02:09:15;;;;;;;34.47;12.45;;;;;;;4.13;100.00;102268.69;5276132;28;20557;-78
2022/01/11 02:11:48;;;;;;;41.70;14.90;;;;;;;4.26;100.00;102275.81;5279170;28;20027;-77
2022/01/11 02:14:19;;;;;;;38.78;14.07;;;;;;;4.23;100.00;102280.97;5278776;28;20020;-77
2022/01/11 02:16:49;;;;;;;43.10;14.63;;;;;;;4.35;100.00;102282.88;5277444;28;20508;-77
2022/01/11 02:19:19;;;;;;;45.65;16.33;;;;;;;4.23;100.00;102288.72;5276387;28;20409;-78
2022/01/11 02:21:50;;;;;;;43.65;15.63;;;;;;;4.33;100.00;102282.84;5277294;28;20024;-78
2022/01/11 02:24:20;;;;;;;47.95;16.55;;;;;;;4.38;100.00;102288.09;5282844;28;20024;-78
2022/01/11 02:26:50;;;;;;;49.22;16.92;;;;;;;4.20;100.00;102290.38;5279497;28;20552;-78
2022/01/11 02:29:21;;;;;;;47.47;16.75;;;;;;;4.19;100.00;102291.22;5281876;28;20051;-77
2022/01/11 02:31:52;;;;;;;41.20;15.35;;;;;;;4.15;100.00;102297.19;5276792;22;20045;-81
2022/01/11 02:34:22;;;;;;;43.53;16.70;;;;;;;4.27;100.00;102293.09;5217489;28;20204;-81
2022/01/11 02:36:52;;;;;;;40.50;16.27;;;;;;;4.34;100.00;102291.50;5213997;28;20414;-81
2022/01/11 02:39:23;;;;;;;37.78;15.68;;;;;;;4.22;100.00;102297.31;5216316;28;20390;-81
2022/01/11 02:41:58;;;;;;;39.28;15.00;;;;;;;4.14;100.00;102293.72;5214289;28;20025;-81
2022/01/11 02:44:28;;;;;;;40.45;15.98;;;;;;;4.25;100.00;102297.38;5217163;28;20029;-81
2022/01/11 02:46:58;;;;;;;41.25;15.50;;;;;;;4.22;100.00;102302.50;5217558;28;20482;-80
2022/01/11 02:49:29;;;;;;;41.38;16.17;;;;;;;4.03;100.00;102309.91;5214398;28;20037;-81
2022/01/11 02:51:59;;;;;;;41.25;15.68;;;;;;;4.09;100.00;102316.06;5217820;28;20040;-81
2022/01/11 02:54:29;;;;;;;36.60;15.77;;;;;;;4.12;100.00;102310.94;5214424;28;20029;-81
2022/01/11 02:57:00;;;;;;;42.10;15.45;;;;;;;4.11;100.00;102311.78;5217072;28;20097;-80
2022/01/11 02:59:30;;;;;;;41.58;16.33;;;;;;;4.21;100.00;102317.97;5218902;28;20486;-81
2022/01/11 03:02:00;;;;;;;39.72;15.43;;;;;;;4.08;100.00;102313.44;5218419;28;20024;-81
2022/01/11 03:04:33;;;;;;;34.92;14.77;;;;;;;4.03;100.00;102321.13;5213239;28;20385;-81
2022/01/11 03:07:03;;;;;;;36.72;14.18;;;;;;;3.98;100.00;102317.56;5213673;28;20022;-81
2022/01/11 03:09:48;;;;;;;36.85;14.57;;;;;;;4.03;100.00;102331.47;5212464;28;20037;-81
2022/01/11 03:12:22;;;;;;;38.40;13.95;;;;;;;3.97;100.00;102331.34;5217163;28;20032;-81
2022/01/11 03:14:52;;;;;;;32.65;14.52;;;;;;;4.01;100.00;102342.63;5218757;28;20052;-82
2022/01/11 03:17:23;;;;;;;35.72;14.38;;;;;;;3.98;100.00;102338.25;5219031;28;20535;-81
2022/01/11 03:19:54;;;;;;;37.08;14.63;;;;;;;4.11;100.00;102332.47;5211849;28;20031;-80
2022/01/11 03:22:24;;;;;;;36.40;14.93;;;;;;;4.18;100.00;102336.94;5213664;28;20033;-81
2022/01/11 03:24:54;;;;;;;34.15;14.13;;;;;;;4.20;100.00;102340.41;5216383;28;20029;-81
2022/01/11 03:27:25;;;;;;;33.15;14.50;;;;;;;4.21;100.00;102347.34;5216237;28;20142;-81
2022/01/11 03:29:55;;;;;;;30.80;13.55;;;;;;;4.20;100.00;102344.72;5213195;28;20029;-81
2022/01/11 03:32:25;;;;;;;33.15;13.93;;;;;;;4.17;100.00;102350.72;5213727;28;20025;-82
2022/01/11 03:34:55;;;;;;;36.10;14.05;;;;;;;4.14;100.00;102344.59;5215039;28;20376;-81
2022/01/11 03:37:26;;;;;;;36.08;14.35;;;;;;;4.17;100.00;102345.53;5214629;28;20036;-81
2022/01/11 03:39:56;;;;;;;32.33;13.18;;;;;;;4.12;100.00;102341.97;5212783;28;20333;-82
2022/01/11 03:42:27;;;;;;;40.40;14.80;;;;;;;4.22;100.00;102345.59;5213178;28;20108;-81
2022/01/11 03:44:57;;;;;;;33.45;13.95;;;;;;;4.13;100.00;102348.88;5214372;28;20051;-81
2022/01/11 03:47:27;;;;;;;34.15;13.85;;;;;;;4.12;100.00;102341.97;5217969;28;20021;-81
2022/01/11 03:49:58;;;;;;;37.40;15.35;;;;;;;4.17;100.00;102342.06;5214472;28;20021;-81
2022/01/11 03:52:28;;;;;;;39.90;14.98;;;;;;;4.28;100.00;102349.19;5218537;28;20039;-81
2022/01/11 03:57:30;;;;;;;36.15;14.05;;;;;;;4.38;100.00;102345.91;5216934;28;20043;-81
2022/01/11 04:00:07;;;;;;;34.55;13.98;;;;;;;4.07;100.00;102353.97;5201119;28;20048;-81
2022/01/11 04:02:38;;;;;;;34.63;13.57;;;;;;;4.04;100.00;102351.31;5213730;28;20109;-81
2022/01/11 04:05:11;;;;;;;34.08;13.85;;;;;;;4.03;100.00;102349.59;5214554;28;20053;-81
2022/01/11 04:07:41;;;;;;;37.75;14.02;;;;;;;4.00;100.00;102346.94;5214795;28;20374;-81
2022/01/11 04:10:12;;;;;;;32.33;13.07;;;;;;;4.03;100.00;102352.16;5214002;28;20100;-81
2022/01/11 04:12:43;;;;;;;35.92;13.80;;;;;;;4.02;100.00;102345.25;5214983;28;20126;-81
2022/01/11 04:15:13;;;;;;;37.50;14.75;;;;;;;3.93;100.00;102349.38;5215286;28;20671;-81
2022/01/11 04:17:43;;;;;;;34.17;14.20;;;;;;;3.94;100.00;102357.16;5214782;28;20025;-82
2022/01/11 04:20:14;;;;;;;35.80;14.98;;;;;;;3.89;100.00;102358.78;5217816;28;20534;-80
2022/01/11 04:22:46;;;;;;;34.00;12.75;;;;;;;3.78;100.00;102355.09;5214820;28;20217;-81
2022/01/11 04:25:18;;;;;;;37.03;14.27;;;;;;;3.78;100.00;102362.00;5210851;28;20052;-81
2022/01/11 04:27:49;;;;;;;32.85;13.63;;;;;;;3.78;100.00;102360.25;5216437;28;20041;-81
2022/01/11 04:30:19;;;;;;;36.70;13.48;;;;;;;3.80;100.00;102353.41;5217857;28;20033;-81
2022/01/11 04:32:49;;;;;;;36.95;14.20;;;;;;;3.86;100.00;102356.13;5213267;28;20043;-81
2022/01/11 04:35:20;;;;;;;39.97;13.90;;;;;;;3.89;100.00;102353.59;5212724;28;20086;-81
2022/01/11 04:37:50;;;;;;;42.92;15.43;;;;;;;3.99;100.00;102354.66;5210132;28;20030;-81
2022/01/11 04:40:21;;;;;;;36.10;15.05;;;;;;;4.00;100.00;102351.22;5214204;28;20025;-81
2022/01/11 04:42:51;;;;;;;40.45;14.82;;;;;;;3.88;100.00;102351.88;5215958;28;20033;-81
2022/01/11 04:45:22;;;;;;;36.30;14.50;;;;;;;3.84;100.00;102360.41;5220674;28;20521;-81
2022/01/11 04:47:56;;;;;;;39.13;14.80;;;;;;;3.93;100.00;102354.56;5219187;28;20105;-81
2022/01/11 04:50:28;;;;;;;36.90;14.60;;;;;;;3.74;100.00;102355.88;5224966;28;20035;-81
2022/01/11 04:52:59;;;;;;;38.05;14.65;;;;;;;3.84;100.00;102363.00;5217871;28;20557;-81
2022/01/11 04:55:29;;;;;;;41.50;13.82;;;;;;;3.76;100.00;102361.09;5209253;28;20037;-81
2022/01/11 04:58:00;;;;;;;36.60;14.38;;;;;;;3.88;100.00;102363.91;5216396;28;20029;-81
2022/01/11 05:00:30;;;;;;;34.47;13.50;;;;;;;3.86;100.00;102370.78;5220781;28;20113;-81
2022/01/11 05:03:01;;;;;;;33.40;13.80;;;;;;;3.77;100.00;102368.88;5219783;28;20115;-81
2022/01/11 05:05:31;;;;;;;34.63;14.25;;;;;;;3.84;100.00;102365.59;5215666;28;20051;-82
2022/01/11 05:08:02;;;;;;;32.50;13.38;;;;;;;3.88;100.00;102366.50;5215336;28;20017;-82
2022/01/11 05:10:32;;;;;;;28.02;12.57;;;;;;;3.87;100.00;102375.97;5215534;28;20025;-81
2022/01/11 05:13:03;;;;;;;27.55;12.07;;;;;;;3.80;100.00;102379.25;5219257;28;20035;-81
2022/01/11 05:15:33;;;;;;;25.05;11.50;;;;;;;3.79;100.00;102366.31;5218757;28;20420;-81
2022/01/11 05:18:03;;;;;;;23.30;11.57;;;;;;;3.87;100.00;102362.16;5221265;28;20126;-81
2022/01/11 05:20:35;;;;;;;24.83;11.07;;;;;;;3.80;100.00;102370.66;5216093;28;20028;-80
2022/01/11 05:23:06;;;;;;;25.33;11.93;;;;;;;3.66;100.00;102370.38;5224217;28;20032;-81
2022/01/11 05:25:36;;;;;;;27.48;12.23;;;;;;;3.77;100.00;102370.59;5219538;28;20118;-81
2022/01/11 05:28:07;;;;;;;27.80;12.07;;;;;;;3.74;100.00;102371.41;5219121;28;20045;-80
2022/01/11 05:30:37;;;;;;;28.50;12.55;;;;;;;3.68;100.00;102371.28;5216095;28;20549;-81
2022/01/11 05:33:07;;;;;;;25.00;11.85;;;;;;;3.84;100.00;102369.88;5221223;28;20048;-81
2022/01/11 05:35:38;;;;;;;27.98;12.45;;;;;;;3.82;100.00;102376.72;5214769;28;20031;-81
2022/01/11 05:38:08;;;;;;;25.17;12.10;;;;;;;3.88;100.00;102380.31;5214112;28;20029;-80
2022/01/11 05:40:39;;;;;;;24.45;11.50;;;;;;;3.83;100.00;102379.34;5210247;28;20035;-81
2022/01/11 05:43:11;;;;;;;27.95;12.15;;;;;;;3.77;100.00;102379.22;5219034;28;20035;-81
2022/01/11 05:45:43;;;;;;;26.13;11.77;;;;;;;3.83;100.00;102381.06;5214813;28;20025;-82
2022/01/11 05:48:13;;;;;;;25.35;12.10;;;;;;;3.93;100.00;102389.03;5212270;28;20022;-81
2022/01/11 05:50:43;;;;;;;22.95;11.38;;;;;;;3.87;100.00;102386.31;5219638;28;20032;-81
2022/01/11 05:53:13;;;;;;;26.27;12.00;;;;;;;3.90;100.00;102391.56;5210948;28;20635;-81
2022/01/11 05:55:44;;;;;;;27.35;11.48;;;;;;;3.75;100.00;102396.41;5209359;28;20506;-81
2022/01/11 05:58:14;;;;;;;28.52;12.13;;;;;;;3.76;100.00;102395.56;5219838;28;20021;-81
2022/01/11 06:00:45;;;;;;;24.95;12.20;;;;;;;3.72;100.00;102395.47;5219585;28;20512;-80
2022/01/11 06:03:15;;;;;;;29.40;12.52;;;;;;;3.67;100.00;102397.97;5213569;28;20108;-81
2022/01/11 06:05:45;;;;;;;26.48;12.60;;;;;;;3.62;100.00;102402.16;5217298;28;20087;-81
2022/01/11 06:08:16;;;;;;;27.48;11.77;;;;;;;3.77;100.00;102405.06;5215420;28;20024;-81
2022/01/11 06:10:48;;;;;;;27.73;12.52;;;;;;;3.87;100.00;102400.94;5213954;28;20079;-81
2022/01/11 06:13:19;;;;;;;28.73;12.63;;;;;;;3.72;100.00;102398.03;5217625;28;20460;-81
2022/01/11 06:15:50;;;;;;;27.85;12.80;;;;;;;3.64;100.00;102403.06;5217039;28;20081;-81
2022/01/11 06:18:20;;;;;;;25.25;12.52;;;;;;;3.60;100.00;102401.25;5214911;28;20562;-81
2022/01/11 06:20:51;;;;;;;28.92;13.10;;;;;;;3.58;100.00;102402.94;5205187;28;20035;-82
2022/01/11 06:23:21;;;;;;;32.63;13.38;;;;;;;3.72;100.00;102409.28;5214491;28;20052;-82
2022/01/11 06:25:51;;;;;;;27.02;12.48;;;;;;;3.67;100.00;102405.72;5214026;28;20233;-83
2022/01/11 06:28:22;;;;;;;27.85;13.10;;;;;;;3.55;100.00;102412.31;5205345;28;20035;-82
2022/01/11 06:30:52;;;;;;;28.20;12.80;;;;;;;3.60;100.00;102408.16;5212634;28;20103;-83
2022/01/11 06:33:23;;;;;;;27.77;12.40;;;;;;;3.63;100.00;102414.22;5215403;28;20128;-82
2022/01/11 06:35:53;;;;;;;28.10;12.70;;;;;;;3.66;100.00;102414.31;5214302;28;20079;-82
2022/01/11 06:38:23;;;;;;;28.38;13.20;;;;;;;3.72;100.00;102421.31;5209070;28;20109;-81
2022/01/11 06:40:53;;;;;;;30.35;12.20;;;;;;;3.75;100.00;102416.25;5208326;28;20026;-82
2022/01/11 06:43:24;;;;;;;27.50;12.18;;;;;;;3.71;100.00;102415.28;5206557;28;20083;-82
2022/01/11 06:45:54;;;;;;;28.38;12.02;;;;;;;3.75;100.00;102422.25;5216170;28;20557;-82
2022/01/11 06:48:24;;;;;;;25.90;12.05;;;;;;;3.71;100.00;102420.47;5217548;28;20030;-84
2022/01/11 06:50:54;;;;;;;26.90;12.13;;;;;;;3.68;100.00;102420.41;5215074;28;20033;-82
2022/01/11 06:53:25;;;;;;;29.15;11.32;;;;;;;3.59;100.00;102420.19;5204504;28;20022;-82
2022/01/11 06:55:55;;;;;;;25.25;12.07;;;;;;;3.52;100.00;102425.19;5222725;28;20086;-83
2022/01/11 06:58:26;;;;;;;27.52;12.32;;;;;;;3.62;100.00;102429.72;5213262;28;20025;-83
2022/01/11 07:00:56;;;;;;;29.65;11.55;;;;;;;3.59;100.00;102435.69;5209361;28;20030;-82
2022/01/11 07:03:28;;;;;;;24.67;11.43;;;;;;;3.60;100.00;102434.00;5219423;28;20025;-82
2022/01/11 07:05:58;;;;;;;26.90;11.95;;;;;;;3.58;100.00;102439.97;5217805;28;20089;-82
2022/01/11 07:08:29;;;;;;;22.25;11.48;;;;;;;3.76;100.00;102436.09;5214045;28;20178;-80
2022/01/11 07:10:59;;;;;;;23.85;11.32;;;;;;;3.52;100.00;102443.28;5209941;28;20036;-83
2022/01/11 07:13:29;;;;;;;23.52;11.00;;;;;;;3.52;100.00;102450.19;5212813;28;20058;-82
2022/01/11 07:16:00;;;;;;;22.73;10.98;;;;;;;3.42;100.00;102450.78;5205735;28;20434;-82
2022/01/11 07:18:30;;;;;;;23.52;10.38;;;;;;;3.39;100.00;102453.31;5224742;28;20040;-82
2022/01/11 07:21:00;;;;;;;21.55;10.68;;;;;;;3.16;100.00;102457.06;5221376;28;20025;-82
2022/01/11 07:23:30;;;;;;;20.17;10.50;;;;;;;3.11;100.00;102461.22;5218264;28;20541;-81
2022/01/11 07:26:02;;;;;;;24.98;10.73;;;;;;;3.11;100.00;102463.81;5209974;28;20135;-81
2022/01/11 07:28:33;;;;;;;21.20;10.02;;;;;;;3.07;100.00;102469.72;5210432;28;20020;-81
2022/01/11 07:31:03;;;;;;;22.98;10.32;;;;;;;2.92;100.00;102466.75;5221581;28;20029;-82
2022/01/11 07:33:34;;;;;;;24.35;10.77;;;;;;;2.76;100.00;102474.94;5224610;28;20033;-83
2022/01/11 07:36:04;;;;;;;22.17;10.38;;;;;;;2.65;100.00;102478.97;5216340;28;20025;-81
2022/01/11 07:38:35;;;;;;;23.13;11.18;;;;;;;2.56;100.00;102481.28;5204787;28;20021;-81
2022/01/11 07:41:06;;;;;;;22.17;10.32;;;;;;;2.59;100.00;102482.25;5207136;28;20693;-81
2022/01/11 07:43:37;;;;;;;24.13;11.05;;;;;;;2.55;100.00;102490.75;5206679;28;20497;-82
2022/01/11 07:46:07;;;;;;;27.23;12.00;;;;;;;2.56;100.00;102479.59;5226664;28;20029;-82
2022/01/11 07:48:37;;;;;;;25.20;11.52;;;;;;;2.54;100.00;102473.50;5222053;28;20047;-82
2022/01/11 07:51:08;;;;;;;24.08;11.65;;;;;;;2.57;100.00;102483.03;5216751;28;20634;-81
2022/01/11 07:53:38;;;;;;;28.77;11.77;;;;;;;2.63;100.00;102483.19;5216144;28;20020;-81
2022/01/11 07:56:08;;;;;;;23.45;10.90;;;;;;;2.57;100.00;102480.44;5215455;28;20029;-82
2022/01/11 07:58:39;;;;;;;28.15;12.13;;;;;;;2.52;100.00;102487.22;5210943;28;20056;-82
2022/01/11 08:01:09;;;;;;;23.77;10.75;;;;;;;2.60;100.00;102480.53;5204778;28;20028;-82
2022/01/11 08:03:39;;;;;;;23.70;11.23;;;;;;;2.72;100.00;102483.44;5208968;28;20072;-82
2022/01/11 08:06:09;;;;;;;21.50;10.60;;;;;;;2.77;100.00;102487.00;5205570;28;20089;-82
2022/01/11 08:08:40;;;;;;;28.05;10.57;;;;;;;2.87;100.00;102489.03;5206163;28;20025;-82
2022/01/11 08:11:11;;;;;;;24.58;11.43;;;;;;;3.09;100.00;102487.03;5217033;28;20121;-82
2022/01/11 08:13:42;;;;;;;23.27;10.90;;;;;;;3.58;100.00;102486.50;5216894;28;20033;-82
2022/01/11 08:16:12;;;;;;;22.92;11.38;;;;;;;4.12;100.00;102486.84;5209122;28;20048;-81
2022/01/11 08:18:42;;;;;;;23.65;10.68;;;;;;;4.14;100.00;102492.94;5221190;28;20061;-82
2022/01/11 08:21:13;;;;;;;24.73;10.45;;;;;;;4.61;100.00;102494.75;5217864;28;20068;-81
2022/01/11 08:23:43;;;;;;;22.33;10.23;;;;;;;4.64;100.00;102489.63;5208283;28;20049;-82
2022/01/11 08:26:14;;;;;;;19.38;9.63;;;;;;;4.60;100.00;102494.75;5210731;28;20051;-83
2022/01/11 08:28:44;;;;;;;20.13;9.57;;;;;;;4.49;100.00;102499.69;5206028;28;20028;-83
2022/01/11 08:31:14;;;;;;;21.13;10.20;;;;;;;4.16;100.00;102504.19;5224080;28;20035;-83
2022/01/11 08:33:46;;;;;;;27.08;10.95;;;;;;;3.94;100.00;102512.31;5244958;22;20131;-82
2022/01/11 08:36:16;;;;;;;30.25;11.57;;;;;;;3.94;100.00;102509.75;5202344;28;20427;-81
2022/01/11 08:38:46;;;;;;;27.33;11.60;;;;;;;3.83;100.00;102508.66;5199835;28;20029;-80
2022/01/11 08:41:19;;;;;;;31.00;13.05;;;;;;;3.96;100.00;102505.47;5205712;28;20475;-81
2022/01/11 08:43:50;;;;;;;32.30;12.90;;;;;;;3.78;100.00;102505.06;5205038;28;20029;-81
2022/01/11 08:46:20;;;;;;;32.85;13.48;;;;;;;3.77;100.00;102511.06;5205944;28;20521;-81
2022/01/11 08:48:51;;;;;;;36.60;12.65;;;;;;;3.72;100.00;102515.28;5206659;28;20029;-82
2022/01/11 08:51:21;;;;;;;36.10;12.55;;;;;;;3.65;100.00;102518.53;5204426;28;20120;-82
2022/01/11 08:53:51;;;;;;;40.38;13.48;;;;;;;3.74;100.00;102523.94;5204934;28;20029;-82
2022/01/11 08:56:21;;;;;;;34.70;13.27;;;;;;;3.69;100.00;102520.38;5206904;28;20040;-81
2022/01/11 08:58:52;;;;;;;37.88;13.55;;;;;;;3.80;100.00;102518.91;5204196;28;20430;-82
2022/01/11 09:01:23;;;;;;;37.97;12.93;;;;;;;3.87;100.00;102514.75;5206177;28;20072;-82
2022/01/11 09:03:54;;;;;;;39.63;14.02;;;;;;;4.15;100.00;102512.78;5205094;28;20021;-81
2022/01/11 09:06:24;;;;;;;38.70;13.77;;;;;;;4.44;100.00;102522.03;5201067;28;20022;-81
2022/01/11 09:08:55;;;;;;;35.22;12.95;;;;;;;4.46;100.00;102519.50;5200186;28;20025;-81
2022/01/11 09:11:25;;;;;;;34.17;13.48;;;;;;;4.71;100.00;102517.41;5206247;28;20033;-82
2022/01/11 09:13:56;;;;;;;35.88;13.95;;;;;;;4.74;100.00;102517.47;5205602;28;20033;-81
2022/01/11 09:16:26;;;;;;;32.90;13.07;;;;;;;4.80;100.00;102517.56;5203997;28;20543;-81
2022/01/11 09:18:57;;;;;;;34.80;13.75;;;;;;;4.85;100.00;102521.13;5204774;28;20481;-81
2022/01/11 09:21:27;;;;;;;32.15;13.45;;;;;;;4.72;100.00;102520.84;5205280;28;20029;-82
2022/01/11 09:23:58;;;;;;;29.48;13.18;;;;;;;4.79;100.00;102525.34;5205957;28;20412;-81
2022/01/11 09:26:30;;;;;;;30.02;12.85;;;;;;;4.69;100.00;102523.41;5208517;28;20434;-82
2022/01/11 09:29:00;;;;;;;29.30;12.13;;;;;;;4.63;100.00;102524.16;5204339;28;20467;-81
2022/01/11 09:31:31;;;;;;;31.75;13.07;;;;;;;4.67;100.00;102520.75;5208223;28;20063;-80
2022/01/11 09:34:01;;;;;;;29.45;12.80;;;;;;;4.55;100.00;102525.72;5208146;28;20025;-82
2022/01/11 09:36:32;;;;;;;31.73;12.93;;;;;;;4.61;100.00;102528.41;5203702;28;20018;-80
2022/01/11 09:39:03;;;;;;;30.65;12.95;;;;;;;4.61;100.00;102533.59;5203725;28;20029;-81
2022/01/11 09:41:35;;;;;;;29.85;12.70;;;;;;;4.66;100.00;102533.69;5204836;28;20120;-82
2022/01/11 09:44:07;;;;;;;30.13;13.15;;;;;;;4.77;100.00;102535.66;5207600;28;20479;-82
2022/01/11 09:46:37;;;;;;;28.23;12.35;;;;;;;4.82;100.00;102536.59;5201640;28;20029;-81
2022/01/11 09:49:08;;;;;;;30.17;12.75;;;;;;;4.84;100.00;102539.22;5206367;28;20025;-81
2022/01/11 09:51:39;;;;;;;26.67;12.43;;;;;;;4.64;100.00;102540.56;5208245;28;20627;-81
2022/01/11 09:54:09;;;;;;;25.25;12.68;;;;;;;4.52;100.00;102542.91;5209286;28;20510;-81
2022/01/11 09:56:40;;;;;;;28.55;12.65;;;;;;;4.64;100.00;102544.00;5207623;28;20029;-80
2022/01/11 09:59:10;;;;;;;29.15;12.48;;;;;;;4.58;100.00;102546.50;5207118;28;20029;-82
2022/01/11 10:01:40;;;;;;;28.60;12.40;;;;;;;4.48;100.00;102541.97;5202410;28;20049;-82
2022/01/11 10:04:13;;;;;;;28.13;12.55;;;;;;;4.41;100.00;102537.50;5207101;28;20457;-81
2022/01/11 10:06:54;;;;;;;30.63;12.25;;;;;;;4.55;100.00;102538.66;5202156;28;20021;-82
2022/01/11 10:09:25;;;;;;;29.83;12.57;;;;;;;4.68;100.00;102545.84;5206441;28;20029;-81
2022/01/11 10:11:58;;;;;;;25.85;12.40;;;;;;;4.56;100.00;102543.00;5206531;28;20111;-82
2022/01/11 10:14:31;;;;;;;25.40;11.82;;;;;;;4.71;100.00;102548.50;5203156;28;20088;-81
2022/01/11 10:17:16;;;;;;;26.70;11.50;;;;;;;4.57;100.00;102549.94;5200487;28;20033;-82
2022/01/11 10:19:59;;;;;;;26.60;12.48;;;;;;;4.39;100.00;102539.19;5207444;28;20033;-82
2022/01/11 10:22:30;;;;;;;24.90;10.95;;;;;;;4.40;100.00;102545.22;5196939;28;20036;-80
2022/01/11 10:25:02;;;;;;;24.50;11.70;;;;;;;4.47;100.00;102531.59;5207501;28;20504;-81
2022/01/11 10:27:35;;;;;;;26.83;11.82;;;;;;;4.60;100.00;102539.63;5206885;28;20159;-82
2022/01/11 10:30:09;;;;;;;25.13;11.95;;;;;;;4.69;100.00;102537.22;5207522;28;20032;-81
2022/01/11 10:32:40;;;;;;;25.40;12.30;;;;;;;4.73;100.00;102530.38;5203667;28;20029;-82
2022/01/11 10:35:18;;;;;;;26.63;11.55;;;;;;;4.69;100.00;102529.47;5207202;28;20026;-82
2022/01/11 10:37:52;;;;;;;25.75;11.55;;;;;;;4.63;100.00;102534.50;5202252;28;20068;-82
2022/01/11 10:40:34;;;;;;;24.98;11.85;;;;;;;4.69;100.00;102536.34;5206273;28;20031;-81
2022/01/11 10:43:07;;;;;;;21.75;10.88;;;;;;;4.41;100.00;102537.50;5204133;28;20024;-81
2022/01/11 10:45:41;;;;;;;21.80;10.20;;;;;;;4.50;100.00;102539.41;5206568;28;20075;-81
2022/01/11 10:48:17;;;;;;;27.20;10.88;;;;;;;4.73;100.00;102528.66;5206646;28;20182;-81
2022/01/11 10:50:56;;;;;;;24.73;11.10;;;;;;;4.65;100.00;102532.81;5207848;28;20506;-81
2022/01/11 10:53:38;;;;;;;28.70;11.82;;;;;;;4.66;100.00;102528.53;5200458;28;20082;-80
2022/01/11 10:56:10;;;;;;;24.38;10.43;;;;;;;4.75;100.00;102516.63;5188668;28;20104;-82
2022/01/11 10:58:41;;;;;;;23.88;11.02;;;;;;;4.86;100.00;102533.25;5207142;28;20065;-82
2022/01/11 11:01:12;;;;;;;25.45;10.75;;;;;;;4.83;100.00;102527.13;5203750;28;20552;-81
2022/01/11 11:03:43;;;;;;;22.70;10.95;;;;;;;4.90;100.00;102523.78;5202443;28;20124;-81
2022/01/11 11:06:14;;;;;;;21.40;10.45;;;;;;;4.93;100.00;102527.31;5201416;28;20022;-81
2022/01/11 11:08:47;;;;;;;23.92;10.63;;;;;;;4.72;100.00;102524.34;5203796;28;20200;-82
2022/01/11 11:11:20;;;;;;;26.25;10.90;;;;;;;4.54;100.00;102523.97;5204608;28;20033;-82
2022/01/11 11:13:51;;;;;;;25.63;10.35;;;;;;;4.60;100.00;102531.84;5204492;28;20025;-82
2022/01/11 11:16:26;;;;;;;24.15;11.18;;;;;;;4.43;100.00;102522.88;5206541;28;20053;-82
2022/01/11 11:18:58;;;;;;;23.50;10.65;;;;;;;4.39;100.00;102528.84;5220402;28;20057;-81
2022/01/11 11:21:37;;;;;;;26.33;11.38;;;;;;;4.48;100.00;102526.41;5197791;28;20030;-81
2022/01/11 11:24:14;;;;;;;25.55;11.25;;;;;;;4.66;100.00;102529.38;5212671;28;20025;-81
2022/01/11 11:26:49;;;;;;;24.80;12.00;;;;;;;4.82;100.00;102535.75;5210318;28;20502;-82
2022/01/11 11:29:26;;;;;;;;;;;;;;;4.97;100.00;102526.53;5213438;28;20052;-82
2022/01/11 11:31:56;;;;;;;23.75;10.65;;;;;;;5.02;100.00;102519.72;5212718;28;19921;-81